sensor_id;sensor_type;location;lat;lon;timestamp;pressure;altitude;pressure_sealevel;temperature;humidity
39295;BME280;52361;52.100;5.248;2023-03-07T00:02:05;99718.0;;;7.14;100.0
39295;BME280;52361;52.100;5.248;2023-03-07T00:03:41;99721.0;;;7.12;100.0
39295;BME280;52361;52.100;5.248;2023-03-07T00:05:18;99728.0;;;7.28;100.0
39295;BME280;52361;52.100;5.248;2023-03-07T00:08:31;99717.0;;;7.19;100.0
39295;BME280;52361;52.100;5.248;2023-03-07T00:10:09;99726.0;;;7.09;100.0
39295;BME280;52361;52.100;5.248;2023-03-07T00:11:45;99723.0;;;7.1;100.0
39295;BME280;52361;52.100;5.248;2023-03-07T00:13:21;99728.0;;;7.16;100.0
39295;BME280;52361;52.100;5.248;2023-03-07T00:16:33;99726.0;;;7.2;100.0
39295;BME280;52361;52.100;5.248;2023-03-07T00:18:09;99724.0;;;7.25;100.0
39295;BME280;52361;52.100;5.248;2023-03-07T00:19:45;99723.0;;;7.24;100.0
39295;BME280;52361;52.100;5.248;2023-03-07T00:22:58;99719.0;;;7.12;100.0
39295;BME280;52361;52.100;5.248;2023-03-07T00:24:34;99720.0;;;7.23;100.0
39295;BME280;52361;52.100;5.248;2023-03-07T00:26:12;99719.0;;;7.17;100.0
39295;BME280;52361;52.100;5.248;2023-03-07T00:29:26;99719.0;;;7.16;100.0
39295;BME280;52361;52.100;5.248;2023-03-07T00:31:03;99722.0;;;7.14;100.0
39295;BME280;52361;52.100;5.248;2023-03-07T00:32:41;99717.0;;;7.08;100.0
39295;BME280;52361;52.100;5.248;2023-03-07T00:34:17;99718.0;;;7.06;100.0
39295;BME280;52361;52.100;5.248;2023-03-07T00:37:31;99712.0;;;7.17;100.0
39295;BME280;52361;52.100;5.248;2023-03-07T00:39:07;99713.0;;;7.21;100.0
39295;BME280;52361;52.100;5.248;2023-03-07T00:40:43;99713.0;;;7.15;100.0
39295;BME280;52361;52.100;5.248;2023-03-07T00:43:56;99711.0;;;7.08;100.0
39295;BME280;52361;52.100;5.248;2023-03-07T00:45:32;99709.0;;;7.15;100.0
39295;BME280;52361;52.100;5.248;2023-03-07T00:47:08;99708.0;;;7.18;100.0
39295;BME280;52361;52.100;5.248;2023-03-07T00:50:21;99705.0;;;7.15;100.0
39295;BME280;52361;52.100;5.248;2023-03-07T00:51:59;99706.0;;;7.14;100.0
39295;BME280;52361;52.100;5.248;2023-03-07T00:53:35;99705.0;;;7.17;100.0
39295;BME280;52361;52.100;5.248;2023-03-07T00:55:12;99706.0;;;7.15;100.0
39295;BME280;52361;52.100;5.248;2023-03-07T00:58:25;99705.0;;;7.18;100.0
39295;BME280;52361;52.100;5.248;2023-03-07T01:00:02;99707.0;;;7.1;100.0
39295;BME280;52361;52.100;5.248;2023-03-07T01:01:38;99705.0;;;7.14;100.0
39295;BME280;52361;52.100;5.248;2023-03-07T01:04:53;99701.0;;;7.16;100.0
39295;BME280;52361;52.100;5.248;2023-03-07T01:06:30;99702.0;;;7.16;100.0
39295;BME280;52361;52.100;5.248;2023-03-07T01:08:08;99699.0;;;7.15;100.0
39295;BME280;52361;52.100;5.248;2023-03-07T01:09:44;99699.0;;;7.28;100.0
39295;BME280;52361;52.100;5.248;2023-03-07T01:12:56;99700.0;;;7.11;100.0
39295;BME280;52361;52.100;5.248;2023-03-07T01:14:33;99698.0;;;7.2;100.0
39295;BME280;52361;52.100;5.248;2023-03-07T01:16:12;99705.0;;;7.2;100.0
39295;BME280;52361;52.100;5.248;2023-03-07T01:19:25;99703.0;;;7.14;100.0
39295;BME280;52361;52.100;5.248;2023-03-07T01:21:02;99703.0;;;7.22;100.0
39295;BME280;52361;52.100;5.248;2023-03-07T01:22:45;99700.0;;;7.12;100.0
39295;BME280;52361;52.100;5.248;2023-03-07T01:24:21;99703.0;;;7.15;100.0
39295;BME280;52361;52.100;5.248;2023-03-07T01:27:34;99694.0;;;7.13;100.0
39295;BME280;52361;52.100;5.248;2023-03-07T01:29:10;99689.0;;;7.0;100.0
39295;BME280;52361;52.100;5.248;2023-03-07T01:30:55;99686.0;;;7.01;100.0
39295;BME280;52361;52.100;5.248;2023-03-07T01:34:08;99685.0;;;6.95;100.0
39295;BME280;52361;52.100;5.248;2023-03-07T01:35:44;99676.0;;;6.87;100.0
39295;BME280;52361;52.100;5.248;2023-03-07T01:37:20;99680.0;;;6.81;100.0
39295;BME280;52361;52.100;5.248;2023-03-07T01:40:37;99684.0;;;6.79;100.0
39295;BME280;52361;52.100;5.248;2023-03-07T01:42:13;99682.0;;;6.8;100.0
39295;BME280;52361;52.100;5.248;2023-03-07T01:43:49;99680.0;;;6.77;100.0
39295;BME280;52361;52.100;5.248;2023-03-07T01:46:36;99686.0;;;6.65;100.0
39295;BME280;52361;52.100;5.248;2023-03-07T01:48:18;99684.0;;;6.73;100.0
39295;BME280;52361;52.100;5.248;2023-03-07T01:49:55;99683.0;;;6.7;100.0
39295;BME280;52361;52.100;5.248;2023-03-07T01:51:35;99681.0;;;6.62;100.0
39295;BME280;52361;52.100;5.248;2023-03-07T01:54:52;99682.0;;;6.55;100.0
39295;BME280;52361;52.100;5.248;2023-03-07T01:56:30;99677.0;;;6.54;100.0
39295;BME280;52361;52.100;5.248;2023-03-07T01:58:09;99676.0;;;6.59;100.0
39295;BME280;52361;52.100;5.248;2023-03-07T02:01:27;99671.0;;;6.6;100.0
39295;BME280;52361;52.100;5.248;2023-03-07T02:03:07;99670.0;;;6.66;100.0
39295;BME280;52361;52.100;5.248;2023-03-07T02:04:50;99669.0;;;6.55;100.0
39295;BME280;52361;52.100;5.248;2023-03-07T02:06:29;99667.0;;;6.56;100.0
39295;BME280;52361;52.100;5.248;2023-03-07T02:09:49;99668.0;;;6.5;100.0
39295;BME280;52361;52.100;5.248;2023-03-07T02:11:27;99663.0;;;6.46;100.0
39295;BME280;52361;52.100;5.248;2023-03-07T02:13:05;99661.0;;;6.48;100.0
39295;BME280;52361;52.100;5.248;2023-03-07T02:14:42;99666.0;;;6.56;100.0
39295;BME280;52361;52.100;5.248;2023-03-07T02:17:57;99659.0;;;6.56;100.0
39295;BME280;52361;52.100;5.248;2023-03-07T02:19:47;99659.0;;;6.45;100.0
39295;BME280;52361;52.100;5.248;2023-03-07T02:21:32;99646.0;;;6.53;100.0
39295;BME280;52361;52.100;5.248;2023-03-07T02:23:20;99647.0;;;6.59;100.0
39295;BME280;52361;52.100;5.248;2023-03-07T02:25:04;99647.0;;;6.61;100.0
39295;BME280;52361;52.100;5.248;2023-03-07T02:29:56;99645.0;;;6.69;100.0
39295;BME280;52361;52.100;5.248;2023-03-07T02:31:32;99641.0;;;6.67;100.0
39295;BME280;52361;52.100;5.248;2023-03-07T02:34:44;99640.0;;;6.54;100.0
39295;BME280;52361;52.100;5.248;2023-03-07T02:36:23;99631.0;;;6.65;100.0
39295;BME280;52361;52.100;5.248;2023-03-07T02:38:01;99633.0;;;6.61;100.0
39295;BME280;52361;52.100;5.248;2023-03-07T02:39:43;99627.0;;;6.62;100.0
39295;BME280;52361;52.100;5.248;2023-03-07T02:43:02;99628.0;;;6.59;100.0
39295;BME280;52361;52.100;5.248;2023-03-07T02:44:39;99631.0;;;6.64;100.0
39295;BME280;52361;52.100;5.248;2023-03-07T02:46:15;99631.0;;;6.55;100.0
39295;BME280;52361;52.100;5.248;2023-03-07T02:49:28;99630.0;;;6.6;100.0
39295;BME280;52361;52.100;5.248;2023-03-07T02:51:04;99631.0;;;6.6;100.0
39295;BME280;52361;52.100;5.248;2023-03-07T02:52:40;99624.0;;;6.6;100.0
39295;BME280;52361;52.100;5.248;2023-03-07T02:54:18;99631.0;;;6.63;100.0
39295;BME280;52361;52.100;5.248;2023-03-07T02:57:30;99633.0;;;6.68;100.0
39295;BME280;52361;52.100;5.248;2023-03-07T02:59:07;99632.0;;;6.61;100.0
39295;BME280;52361;52.100;5.248;2023-03-07T03:00:43;99630.0;;;6.6;100.0
39295;BME280;52361;52.100;5.248;2023-03-07T03:03:55;99630.0;;;6.63;100.0
39295;BME280;52361;52.100;5.248;2023-03-07T03:05:31;99624.0;;;6.73;100.0
39295;BME280;52361;52.100;5.248;2023-03-07T03:07:07;99625.0;;;6.66;100.0
39295;BME280;52361;52.100;5.248;2023-03-07T03:10:20;99618.0;;;6.55;100.0
39295;BME280;52361;52.100;5.248;2023-03-07T03:11:56;99622.0;;;6.48;100.0
39295;BME280;52361;52.100;5.248;2023-03-07T03:13:33;99619.0;;;6.54;100.0
39295;BME280;52361;52.100;5.248;2023-03-07T03:16:46;99611.0;;;6.53;100.0
39295;BME280;52361;52.100;5.248;2023-03-07T03:18:23;99616.0;;;6.51;100.0
39295;BME280;52361;52.100;5.248;2023-03-07T03:19:59;99607.0;;;6.61;100.0
39295;BME280;52361;52.100;5.248;2023-03-07T03:21:36;99608.0;;;6.57;100.0
39295;BME280;52361;52.100;5.248;2023-03-07T03:24:48;99605.0;;;6.57;100.0
39295;BME280;52361;52.100;5.248;2023-03-07T03:26:24;99605.0;;;6.57;100.0
39295;BME280;52361;52.100;5.248;2023-03-07T03:28:00;99610.0;;;6.49;100.0
39295;BME280;52361;52.100;5.248;2023-03-07T03:31:12;99605.0;;;6.53;100.0
39295;BME280;52361;52.100;5.248;2023-03-07T03:32:50;99606.0;;;6.58;100.0
39295;BME280;52361;52.100;5.248;2023-03-07T03:34:26;99607.0;;;6.56;100.0
39295;BME280;52361;52.100;5.248;2023-03-07T03:37:43;99605.0;;;6.59;100.0
39295;BME280;52361;52.100;5.248;2023-03-07T03:39:19;99603.0;;;6.44;100.0
39295;BME280;52361;52.100;5.248;2023-03-07T03:40:55;99606.0;;;6.46;100.0
39295;BME280;52361;52.100;5.248;2023-03-07T03:42:31;99598.0;;;6.46;100.0
39295;BME280;52361;52.100;5.248;2023-03-07T03:45:52;99603.0;;;6.49;100.0
39295;BME280;52361;52.100;5.248;2023-03-07T03:47:29;99601.0;;;6.54;100.0
39295;BME280;52361;52.100;5.248;2023-03-07T03:49:05;99593.0;;;6.45;100.0
39295;BME280;52361;52.100;5.248;2023-03-07T03:52:17;99596.0;;;6.49;100.0
39295;BME280;52361;52.100;5.248;2023-03-07T03:53:53;99594.0;;;6.55;100.0
39295;BME280;52361;52.100;5.248;2023-03-07T03:55:30;99598.0;;;6.47;100.0
39295;BME280;52361;52.100;5.248;2023-03-07T03:57:08;99601.0;;;6.53;100.0
39295;BME280;52361;52.100;5.248;2023-03-07T04:00:23;99594.0;;;6.58;100.0
39295;BME280;52361;52.100;5.248;2023-03-07T04:01:59;99595.0;;;6.59;100.0
39295;BME280;52361;52.100;5.248;2023-03-07T04:03:38;99592.0;;;6.62;100.0
39295;BME280;52361;52.100;5.248;2023-03-07T04:06:51;99592.0;;;6.54;100.0
39295;BME280;52361;52.100;5.248;2023-03-07T04:08:27;99590.0;;;6.61;100.0
39295;BME280;52361;52.100;5.248;2023-03-07T04:10:04;99592.0;;;6.7;100.0
39295;BME280;52361;52.100;5.248;2023-03-07T04:13:16;99593.0;;;6.57;100.0
39295;BME280;52361;52.100;5.248;2023-03-07T04:14:52;99591.0;;;6.54;100.0
39295;BME280;52361;52.100;5.248;2023-03-07T04:16:28;99587.0;;;6.7;100.0
39295;BME280;52361;52.100;5.248;2023-03-07T04:18:05;99581.0;;;6.46;100.0
39295;BME280;52361;52.100;5.248;2023-03-07T04:21:17;99583.0;;;6.22;100.0
39295;BME280;52361;52.100;5.248;2023-03-07T04:22:54;99582.0;;;6.31;100.0
39295;BME280;52361;52.100;5.248;2023-03-07T04:24:30;99580.0;;;6.2;100.0
39295;BME280;52361;52.100;5.248;2023-03-07T04:27:44;99571.0;;;6.07;100.0
39295;BME280;52361;52.100;5.248;2023-03-07T04:29:21;99570.0;;;6.28;100.0
39295;BME280;52361;52.100;5.248;2023-03-07T04:30:57;99573.0;;;6.26;100.0
39295;BME280;52361;52.100;5.248;2023-03-07T04:34:09;99576.0;;;6.24;100.0
39295;BME280;52361;52.100;5.248;2023-03-07T04:35:45;99572.0;;;6.22;100.0
39295;BME280;52361;52.100;5.248;2023-03-07T04:37:21;99568.0;;;6.15;100.0
39295;BME280;52361;52.100;5.248;2023-03-07T04:42:10;99575.0;;;6.12;100.0
39295;BME280;52361;52.100;5.248;2023-03-07T04:43:46;99565.0;;;6.2;100.0
39295;BME280;52361;52.100;5.248;2023-03-07T04:45:22;99564.0;;;6.26;100.0
39295;BME280;52361;52.100;5.248;2023-03-07T04:48:34;99566.0;;;6.3;100.0
39295;BME280;52361;52.100;5.248;2023-03-07T04:50:10;99567.0;;;6.18;100.0
39295;BME280;52361;52.100;5.248;2023-03-07T04:51:46;99568.0;;;6.3;100.0
39295;BME280;52361;52.100;5.248;2023-03-07T04:54:59;99564.0;;;6.28;100.0
39295;BME280;52361;52.100;5.248;2023-03-07T04:56:35;99559.0;;;6.25;100.0
39295;BME280;52361;52.100;5.248;2023-03-07T04:58:12;99556.0;;;6.29;100.0
39295;BME280;52361;52.100;5.248;2023-03-07T04:59:48;99557.0;;;6.07;100.0
39295;BME280;52361;52.100;5.248;2023-03-07T05:03:00;99556.0;;;6.1;100.0
39295;BME280;52361;52.100;5.248;2023-03-07T05:04:37;99552.0;;;6.18;100.0
39295;BME280;52361;52.100;5.248;2023-03-07T05:06:14;99557.0;;;6.1;100.0
39295;BME280;52361;52.100;5.248;2023-03-07T05:09:28;99556.0;;;6.21;100.0
39295;BME280;52361;52.100;5.248;2023-03-07T05:11:05;99558.0;;;6.18;100.0
39295;BME280;52361;52.100;5.248;2023-03-07T05:12:41;99561.0;;;5.99;100.0
39295;BME280;52361;52.100;5.248;2023-03-07T05:15:55;99564.0;;;5.94;100.0
39295;BME280;52361;52.100;5.248;2023-03-07T05:17:32;99565.0;;;5.95;100.0
39295;BME280;52361;52.100;5.248;2023-03-07T05:19:08;99570.0;;;6.01;100.0
39295;BME280;52361;52.100;5.248;2023-03-07T05:20:45;99571.0;;;6.11;100.0
39295;BME280;52361;52.100;5.248;2023-03-07T05:23:57;99570.0;;;6.11;100.0
39295;BME280;52361;52.100;5.248;2023-03-07T05:25:33;99565.0;;;6.14;100.0
39295;BME280;52361;52.100;5.248;2023-03-07T05:27:10;99562.0;;;6.06;100.0
39295;BME280;52361;52.100;5.248;2023-03-07T05:30:22;99565.0;;;5.87;100.0
39295;BME280;52361;52.100;5.248;2023-03-07T05:31:58;99560.0;;;5.98;100.0
39295;BME280;52361;52.100;5.248;2023-03-07T05:33:34;99568.0;;;5.9;100.0
39295;BME280;52361;52.100;5.248;2023-03-07T05:36:47;99569.0;;;5.89;100.0
39295;BME280;52361;52.100;5.248;2023-03-07T05:38:23;99580.0;;;5.96;100.0
39295;BME280;52361;52.100;5.248;2023-03-07T05:39:59;99577.0;;;5.89;100.0
39295;BME280;52361;52.100;5.248;2023-03-07T05:43:11;99580.0;;;5.88;100.0
39295;BME280;52361;52.100;5.248;2023-03-07T05:44:47;99589.0;;;5.67;100.0
39295;BME280;52361;52.100;5.248;2023-03-07T05:46:24;99590.0;;;5.38;100.0
39295;BME280;52361;52.100;5.248;2023-03-07T05:48:00;99593.0;;;5.44;100.0
39295;BME280;52361;52.100;5.248;2023-03-07T05:51:12;99600.0;;;5.23;100.0
39295;BME280;52361;52.100;5.248;2023-03-07T05:52:48;99596.0;;;5.04;100.0
39295;BME280;52361;52.100;5.248;2023-03-07T05:54:24;99598.0;;;5.08;100.0
39295;BME280;52361;52.100;5.248;2023-03-07T05:57:37;99597.0;;;4.96;100.0
39295;BME280;52361;52.100;5.248;2023-03-07T05:59:14;99594.0;;;4.91;100.0
39295;BME280;52361;52.100;5.248;2023-03-07T06:00:50;99592.0;;;4.8;100.0
39295;BME280;52361;52.100;5.248;2023-03-07T06:04:02;99596.0;;;4.7;100.0
39295;BME280;52361;52.100;5.248;2023-03-07T06:05:38;99599.0;;;4.84;100.0
39295;BME280;52361;52.100;5.248;2023-03-07T06:07:14;99597.0;;;4.63;100.0
39295;BME280;52361;52.100;5.248;2023-03-07T06:08:50;99595.0;;;4.59;100.0
39295;BME280;52361;52.100;5.248;2023-03-07T06:12:03;99593.0;;;4.45;100.0
39295;BME280;52361;52.100;5.248;2023-03-07T06:13:40;99593.0;;;4.39;100.0
39295;BME280;52361;52.100;5.248;2023-03-07T06:15:16;99593.0;;;4.29;100.0
39295;BME280;52361;52.100;5.248;2023-03-07T06:18:28;99598.0;;;4.47;100.0
39295;BME280;52361;52.100;5.248;2023-03-07T06:20:05;99597.0;;;4.45;100.0
39295;BME280;52361;52.100;5.248;2023-03-07T06:21:42;99602.0;;;4.37;100.0
39295;BME280;52361;52.100;5.248;2023-03-07T06:24:54;99600.0;;;4.26;100.0
39295;BME280;52361;52.100;5.248;2023-03-07T06:26:30;99605.0;;;4.32;100.0
39295;BME280;52361;52.100;5.248;2023-03-07T06:28:06;99602.0;;;4.17;100.0
39295;BME280;52361;52.100;5.248;2023-03-07T06:31:19;99602.0;;;4.18;100.0
39295;BME280;52361;52.100;5.248;2023-03-07T06:32:55;99601.0;;;4.28;100.0
39295;BME280;52361;52.100;5.248;2023-03-07T06:34:32;99593.0;;;4.12;100.0
39295;BME280;52361;52.100;5.248;2023-03-07T06:36:11;99602.0;;;4.28;100.0
39295;BME280;52361;52.100;5.248;2023-03-07T06:39:25;99601.0;;;4.2;100.0
39295;BME280;52361;52.100;5.248;2023-03-07T06:41:01;99599.0;;;4.16;100.0
39295;BME280;52361;52.100;5.248;2023-03-07T06:42:38;99613.0;;;4.07;100.0
39295;BME280;52361;52.100;5.248;2023-03-07T06:45:52;99618.0;;;3.95;100.0
39295;BME280;52361;52.100;5.248;2023-03-07T06:47:28;99610.0;;;3.71;100.0
39295;BME280;52361;52.100;5.248;2023-03-07T06:49:04;99613.0;;;3.77;100.0
39295;BME280;52361;52.100;5.248;2023-03-07T06:52:16;99612.0;;;3.72;100.0
39295;BME280;52361;52.100;5.248;2023-03-07T06:53:52;99615.0;;;3.71;100.0
39295;BME280;52361;52.100;5.248;2023-03-07T06:55:28;99616.0;;;3.7;100.0
39295;BME280;52361;52.100;5.248;2023-03-07T06:57:05;99617.0;;;3.61;100.0
39295;BME280;52361;52.100;5.248;2023-03-07T07:00:18;99617.0;;;3.63;100.0
39295;BME280;52361;52.100;5.248;2023-03-07T07:01:54;99617.0;;;3.59;100.0
39295;BME280;52361;52.100;5.248;2023-03-07T07:03:30;99617.0;;;3.56;100.0
39295;BME280;52361;52.100;5.248;2023-03-07T07:06:43;99621.0;;;3.57;100.0
39295;BME280;52361;52.100;5.248;2023-03-07T07:08:20;99619.0;;;3.41;100.0
39295;BME280;52361;52.100;5.248;2023-03-07T07:09:56;99623.0;;;3.28;100.0
39295;BME280;52361;52.100;5.248;2023-03-07T07:13:08;99616.0;;;3.28;100.0
39295;BME280;52361;52.100;5.248;2023-03-07T07:14:46;99615.0;;;3.3;100.0
39295;BME280;52361;52.100;5.248;2023-03-07T07:16:22;99618.0;;;3.25;100.0
39295;BME280;52361;52.100;5.248;2023-03-07T07:17:58;99611.0;;;3.29;100.0
39295;BME280;52361;52.100;5.248;2023-03-07T07:21:11;99609.0;;;3.27;100.0
39295;BME280;52361;52.100;5.248;2023-03-07T07:22:47;99609.0;;;3.27;100.0
39295;BME280;52361;52.100;5.248;2023-03-07T07:24:23;99609.0;;;3.29;100.0
39295;BME280;52361;52.100;5.248;2023-03-07T07:27:36;99613.0;;;3.29;100.0
39295;BME280;52361;52.100;5.248;2023-03-07T07:29:12;99611.0;;;3.22;100.0
39295;BME280;52361;52.100;5.248;2023-03-07T07:30:49;99608.0;;;3.21;100.0
39295;BME280;52361;52.100;5.248;2023-03-07T07:34:01;99605.0;;;3.28;100.0
39295;BME280;52361;52.100;5.248;2023-03-07T07:35:37;99606.0;;;3.21;100.0
39295;BME280;52361;52.100;5.248;2023-03-07T07:37:13;99605.0;;;3.14;100.0
39295;BME280;52361;52.100;5.248;2023-03-07T07:38:49;99607.0;;;3.16;100.0
39295;BME280;52361;52.100;5.248;2023-03-07T07:42:02;99607.0;;;3.23;100.0
39295;BME280;52361;52.100;5.248;2023-03-07T07:43:38;99609.0;;;3.24;100.0
39295;BME280;52361;52.100;5.248;2023-03-07T07:45:15;99612.0;;;3.28;100.0
39295;BME280;52361;52.100;5.248;2023-03-07T07:48:27;99611.0;;;3.25;100.0
39295;BME280;52361;52.100;5.248;2023-03-07T07:50:04;99612.0;;;3.34;100.0
39295;BME280;52361;52.100;5.248;2023-03-07T07:51:40;99618.0;;;3.37;100.0
39295;BME280;52361;52.100;5.248;2023-03-07T07:54:53;99618.0;;;3.38;100.0
39295;BME280;52361;52.100;5.248;2023-03-07T07:56:29;99623.0;;;3.32;100.0
39295;BME280;52361;52.100;5.248;2023-03-07T07:58:05;99630.0;;;3.38;100.0
39295;BME280;52361;52.100;5.248;2023-03-07T08:01:19;99630.0;;;3.42;100.0
39295;BME280;52361;52.100;5.248;2023-03-07T08:02:57;99631.0;;;3.46;100.0
39295;BME280;52361;52.100;5.248;2023-03-07T08:04:34;99628.0;;;3.62;100.0
39295;BME280;52361;52.100;5.248;2023-03-07T08:06:10;99632.0;;;3.77;100.0
39295;BME280;52361;52.100;5.248;2023-03-07T08:09:24;99627.0;;;3.71;100.0
39295;BME280;52361;52.100;5.248;2023-03-07T08:11:00;99628.0;;;3.72;100.0
39295;BME280;52361;52.100;5.248;2023-03-07T08:12:36;99625.0;;;3.78;100.0
39295;BME280;52361;52.100;5.248;2023-03-07T08:15:49;99628.0;;;3.88;100.0
39295;BME280;52361;52.100;5.248;2023-03-07T08:17:25;99630.0;;;3.93;100.0
39295;BME280;52361;52.100;5.248;2023-03-07T08:19:03;99630.0;;;3.89;100.0
39295;BME280;52361;52.100;5.248;2023-03-07T08:20:39;99631.0;;;3.99;100.0
39295;BME280;52361;52.100;5.248;2023-03-07T08:23:52;99638.0;;;4.16;100.0
39295;BME280;52361;52.100;5.248;2023-03-07T08:25:29;99640.0;;;4.16;100.0
39295;BME280;52361;52.100;5.248;2023-03-07T08:27:04;99638.0;;;4.13;100.0
39295;BME280;52361;52.100;5.248;2023-03-07T08:30:17;99640.0;;;4.09;100.0
39295;BME280;52361;52.100;5.248;2023-03-07T08:31:54;99637.0;;;4.17;100.0
39295;BME280;52361;52.100;5.248;2023-03-07T08:33:31;99638.0;;;4.14;100.0
39295;BME280;52361;52.100;5.248;2023-03-07T08:36:43;99635.0;;;4.2;100.0
39295;BME280;52361;52.100;5.248;2023-03-07T08:38:19;99633.0;;;4.25;100.0
39295;BME280;52361;52.100;5.248;2023-03-07T08:39:56;99631.0;;;4.18;100.0
39295;BME280;52361;52.100;5.248;2023-03-07T08:43:08;99630.0;;;4.24;100.0
39295;BME280;52361;52.100;5.248;2023-03-07T08:44:44;99630.0;;;4.21;100.0
39295;BME280;52361;52.100;5.248;2023-03-07T08:46:20;99637.0;;;4.36;100.0
39295;BME280;52361;52.100;5.248;2023-03-07T08:47:57;99634.0;;;4.36;100.0
39295;BME280;52361;52.100;5.248;2023-03-07T08:51:11;99631.0;;;4.34;100.0
39295;BME280;52361;52.100;5.248;2023-03-07T08:52:48;99634.0;;;4.38;100.0
39295;BME280;52361;52.100;5.248;2023-03-07T08:54:26;99633.0;;;4.37;100.0
39295;BME280;52361;52.100;5.248;2023-03-07T08:57:42;99640.0;;;4.57;100.0
39295;BME280;52361;52.100;5.248;2023-03-07T08:59:19;99642.0;;;4.62;100.0
39295;BME280;52361;52.100;5.248;2023-03-07T09:00:56;99632.0;;;4.67;100.0
39295;BME280;52361;52.100;5.248;2023-03-07T09:02:33;99633.0;;;4.7;100.0
39295;BME280;52361;52.100;5.248;2023-03-07T09:05:45;99637.0;;;4.88;100.0
39295;BME280;52361;52.100;5.248;2023-03-07T09:07:22;99634.0;;;4.83;100.0
39295;BME280;52361;52.100;5.248;2023-03-07T09:08:58;99632.0;;;4.8;100.0
39295;BME280;52361;52.100;5.248;2023-03-07T09:12:11;99640.0;;;4.74;100.0
39295;BME280;52361;52.100;5.248;2023-03-07T09:13:48;99634.0;;;4.74;100.0
39295;BME280;52361;52.100;5.248;2023-03-07T09:15:24;99637.0;;;4.76;100.0
39295;BME280;52361;52.100;5.248;2023-03-07T09:18:36;99639.0;;;4.75;100.0
39295;BME280;52361;52.100;5.248;2023-03-07T09:21:49;99630.0;;;4.8;100.0
39295;BME280;52361;52.100;5.248;2023-03-07T09:23:25;99630.0;;;4.72;100.0
39295;BME280;52361;52.100;5.248;2023-03-07T09:28:15;99632.0;;;4.99;100.0
39295;BME280;52361;52.100;5.248;2023-03-07T09:29:51;99634.0;;;4.87;100.0
39295;BME280;52361;52.100;5.248;2023-03-07T09:33:03;99635.0;;;5.08;100.0
39295;BME280;52361;52.100;5.248;2023-03-07T09:34:39;99638.0;;;5.03;100.0
39295;BME280;52361;52.100;5.248;2023-03-07T09:36:16;99642.0;;;5.13;100.0
39295;BME280;52361;52.100;5.248;2023-03-07T09:39:31;99644.0;;;4.95;100.0
39295;BME280;52361;52.100;5.248;2023-03-07T09:41:25;99643.0;;;4.99;100.0
39295;BME280;52361;52.100;5.248;2023-03-07T09:43:18;99639.0;;;5.08;100.0
39295;BME280;52361;52.100;5.248;2023-03-07T09:45:03;99639.0;;;5.04;100.0
39295;BME280;52361;52.100;5.248;2023-03-07T09:47:28;99639.0;;;5.09;100.0
39295;BME280;52361;52.100;5.248;2023-03-07T09:49:17;99643.0;;;5.12;100.0
39295;BME280;52361;52.100;5.248;2023-03-07T09:50:57;99641.0;;;5.18;100.0
39295;BME280;52361;52.100;5.248;2023-03-07T09:54:16;99637.0;;;5.35;100.0
39295;BME280;52361;52.100;5.248;2023-03-07T09:55:57;99632.0;;;5.33;100.0
39295;BME280;52361;52.100;5.248;2023-03-07T09:57:39;99639.0;;;5.48;100.0
39295;BME280;52361;52.100;5.248;2023-03-07T09:59:28;99636.0;;;5.52;100.0
39295;BME280;52361;52.100;5.248;2023-03-07T10:01:10;99636.0;;;5.43;100.0
39295;BME280;52361;52.100;5.248;2023-03-07T10:04:41;99637.0;;;5.6;100.0
39295;BME280;52361;52.100;5.248;2023-03-07T10:06:24;99640.0;;;5.52;100.0
39295;BME280;52361;52.100;5.248;2023-03-07T10:08:02;99637.0;;;5.68;100.0
39295;BME280;52361;52.100;5.248;2023-03-07T10:09:40;99641.0;;;5.88;100.0
39295;BME280;52361;52.100;5.248;2023-03-07T10:13:21;99635.0;;;5.79;100.0
39295;BME280;52361;52.100;5.248;2023-03-07T10:15:08;99633.0;;;5.72;100.0
39295;BME280;52361;52.100;5.248;2023-03-07T10:18:50;99637.0;;;5.69;100.0
39295;BME280;52361;52.100;5.248;2023-03-07T10:20:39;99640.0;;;5.79;100.0
39295;BME280;52361;52.100;5.248;2023-03-07T10:22:29;99641.0;;;5.62;100.0
39295;BME280;52361;52.100;5.248;2023-03-07T10:24:25;99652.0;;;5.6;100.0
39295;BME280;52361;52.100;5.248;2023-03-07T10:27:46;99648.0;;;5.61;100.0
39295;BME280;52361;52.100;5.248;2023-03-07T10:29:31;99649.0;;;5.48;100.0
39295;BME280;52361;52.100;5.248;2023-03-07T10:32:54;99650.0;;;5.58;100.0
39295;BME280;52361;52.100;5.248;2023-03-07T10:34:31;99655.0;;;5.55;100.0
39295;BME280;52361;52.100;5.248;2023-03-07T10:37:54;99656.0;;;5.52;100.0
39295;BME280;52361;52.100;5.248;2023-03-07T10:39:34;99655.0;;;5.62;100.0
39295;BME280;52361;52.100;5.248;2023-03-07T10:41:18;99648.0;;;5.72;100.0
39295;BME280;52361;52.100;5.248;2023-03-07T10:42:57;99651.0;;;5.67;100.0
39295;BME280;52361;52.100;5.248;2023-03-07T10:46:14;99648.0;;;5.8;100.0
39295;BME280;52361;52.100;5.248;2023-03-07T10:47:52;99650.0;;;5.92;100.0
39295;BME280;52361;52.100;5.248;2023-03-07T10:49:31;99645.0;;;5.8;100.0
39295;BME280;52361;52.100;5.248;2023-03-07T10:53:13;99651.0;;;5.87;100.0
39295;BME280;52361;52.100;5.248;2023-03-07T10:55:28;99650.0;;;5.74;100.0
39295;BME280;52361;52.100;5.248;2023-03-07T10:57:09;99649.0;;;5.89;100.0
39295;BME280;52361;52.100;5.248;2023-03-07T10:59:03;99649.0;;;5.86;100.0
39295;BME280;52361;52.100;5.248;2023-03-07T11:00:41;99657.0;;;5.84;100.0
39295;BME280;52361;52.100;5.248;2023-03-07T11:02:28;99662.0;;;5.8;100.0
39295;BME280;52361;52.100;5.248;2023-03-07T11:04:20;99652.0;;;5.69;100.0
39295;BME280;52361;52.100;5.248;2023-03-07T11:05:57;99656.0;;;5.78;100.0
39295;BME280;52361;52.100;5.248;2023-03-07T11:09:17;99651.0;;;5.85;100.0
39295;BME280;52361;52.100;5.248;2023-03-07T11:11:02;99656.0;;;5.87;100.0
39295;BME280;52361;52.100;5.248;2023-03-07T11:12:44;99662.0;;;5.77;100.0
39295;BME280;52361;52.100;5.248;2023-03-07T11:14:21;99670.0;;;5.64;100.0
39295;BME280;52361;52.100;5.248;2023-03-07T11:17:55;99670.0;;;5.75;100.0
39295;BME280;52361;52.100;5.248;2023-03-07T11:19:34;99676.0;;;5.52;100.0
39295;BME280;52361;52.100;5.248;2023-03-07T11:21:31;99680.0;;;5.62;100.0
39295;BME280;52361;52.100;5.248;2023-03-07T11:23:13;99681.0;;;5.73;100.0
39295;BME280;52361;52.100;5.248;2023-03-07T11:24:59;99680.0;;;5.65;100.0
39295;BME280;52361;52.100;5.248;2023-03-07T11:28:26;99678.0;;;5.63;100.0
39295;BME280;52361;52.100;5.248;2023-03-07T11:30:25;99681.0;;;5.7;100.0
39295;BME280;52361;52.100;5.248;2023-03-07T11:32:11;99682.0;;;5.68;100.0
39295;BME280;52361;52.100;5.248;2023-03-07T11:33:51;99670.0;;;5.46;100.0
39295;BME280;52361;52.100;5.248;2023-03-07T11:35:55;99671.0;;;5.41;100.0